createdAt,value
2023-03-30T00:01:14.624Z,16.90
2023-03-30T00:03:45.055Z,16.90
2023-03-30T00:06:14.607Z,16.90
2023-03-30T00:08:41.366Z,16.90
2023-03-30T00:11:11.901Z,16.90
2023-03-30T00:13:39.568Z,16.90
2023-03-30T00:16:09.275Z,16.90
2023-03-30T00:18:36.711Z,16.90
2023-03-30T00:21:04.397Z,16.80
2023-03-30T00:23:32.207Z,16.80
2023-03-30T00:25:59.451Z,16.80
2023-03-30T00:28:27.008Z,16.80
2023-03-30T00:30:54.193Z,16.80
2023-03-30T00:33:30.325Z,16.80
2023-03-30T00:36:04.609Z,16.80
2023-03-30T00:38:31.306Z,16.80
2023-03-30T00:41:00.725Z,16.80
2023-03-30T00:43:28.788Z,16.80
2023-03-30T00:45:58.336Z,16.80
2023-03-30T00:48:34.488Z,16.70
2023-03-30T00:51:11.331Z,16.80
2023-03-30T00:53:42.005Z,16.70
2023-03-30T00:56:12.966Z,16.70
2023-03-30T00:58:41.201Z,16.70
2023-03-30T01:01:11.668Z,16.70
2023-03-30T01:03:50.612Z,16.70
2023-03-30T01:06:30.084Z,16.70
2023-03-30T01:09:00.670Z,16.70
2023-03-30T01:11:27.991Z,16.70
2023-03-30T01:14:01.298Z,16.70
2023-03-30T01:17:01.497Z,16.70
2023-03-30T01:20:12.879Z,16.70
2023-03-30T01:23:04.944Z,16.70
2023-03-30T01:25:52.841Z,16.60
2023-03-30T01:28:38.470Z,16.60
2023-03-30T01:31:25.609Z,16.60
2023-03-30T01:34:31.668Z,16.60
2023-03-30T01:37:22.338Z,16.60
2023-03-30T01:39:58.113Z,16.60
2023-03-30T01:42:34.614Z,16.60
2023-03-30T01:45:13.830Z,16.60
2023-03-30T01:47:58.475Z,16.60
2023-03-30T01:50:29.790Z,16.50
2023-03-30T01:53:22.583Z,16.50
2023-03-30T01:56:01.861Z,16.50
2023-03-30T01:58:37.904Z,16.60
2023-03-30T02:01:10.898Z,16.50
2023-03-30T02:03:41.904Z,16.50
2023-03-30T02:06:24.513Z,16.50
2023-03-30T02:08:56.009Z,16.50
2023-03-30T02:11:26.325Z,16.50
2023-03-30T02:13:55.198Z,16.50
2023-03-30T02:16:29.237Z,16.50
2023-03-30T02:18:57.659Z,16.50
2023-03-30T02:21:25.124Z,16.50
2023-03-30T02:23:54.746Z,16.50
2023-03-30T02:26:22.899Z,16.50
2023-03-30T02:28:51.647Z,16.50
2023-03-30T02:31:18.507Z,16.50
2023-03-30T02:33:58.932Z,16.50
2023-03-30T02:36:53.433Z,16.40
2023-03-30T02:40:08.894Z,16.40
2023-03-30T02:43:00.730Z,16.40
2023-03-30T02:45:34.387Z,16.40
2023-03-30T02:48:42.290Z,16.40
2023-03-30T02:51:43.227Z,16.40
2023-03-30T02:54:57.150Z,16.40
2023-03-30T02:58:24.071Z,16.40
2023-03-30T03:01:25.335Z,16.40
2023-03-30T03:04:11.527Z,16.40
2023-03-30T03:06:55.804Z,16.40
2023-03-30T03:09:25.959Z,16.40
2023-03-30T03:11:52.773Z,16.40
2023-03-30T03:14:20.657Z,16.40
2023-03-30T03:16:48.030Z,16.40
2023-03-30T03:19:16.552Z,16.40
2023-03-30T03:21:45.861Z,16.40
2023-03-30T03:24:17.139Z,16.40
2023-03-30T03:27:02.558Z,16.40
2023-03-30T03:29:34.738Z,16.30
2023-03-30T03:32:01.456Z,16.30
2023-03-30T03:34:33.304Z,16.30
2023-03-30T03:37:03.343Z,16.30
2023-03-30T03:39:32.931Z,16.30
2023-03-30T03:42:11.423Z,16.40
2023-03-30T03:44:47.477Z,16.30
2023-03-30T03:47:16.592Z,16.30
2023-03-30T03:49:44.139Z,16.30
2023-03-30T03:52:10.920Z,16.30
2023-03-30T03:54:37.654Z,16.30
2023-03-30T03:57:05.653Z,16.30
2023-03-30T03:59:32.633Z,16.30
2023-03-30T04:01:59.542Z,16.30
2023-03-30T04:04:26.493Z,16.30
2023-03-30T04:06:56.233Z,16.30
2023-03-30T04:09:23.546Z,16.30
2023-03-30T04:12:22.522Z,16.30
2023-03-30T04:15:19.809Z,16.30
2023-03-30T04:17:59.549Z,16.30
2023-03-30T04:20:44.651Z,16.30
2023-03-30T04:23:33.760Z,16.30
2023-03-30T04:26:18.546Z,16.30
2023-03-30T04:29:10.546Z,16.20
2023-03-30T04:32:02.714Z,16.20
2023-03-30T04:34:59.143Z,16.30
2023-03-30T04:37:44.392Z,16.20
2023-03-30T04:40:29.939Z,16.20
2023-03-30T04:43:08.223Z,16.20
2023-03-30T04:45:47.616Z,16.20
2023-03-30T04:48:40.318Z,16.20
2023-03-30T04:51:19.181Z,16.20
2023-03-30T04:54:04.847Z,16.20
2023-03-30T04:56:40.778Z,16.20
2023-03-30T04:59:27.760Z,16.20
2023-03-30T05:02:14.822Z,16.30
2023-03-30T05:05:08.329Z,16.30
2023-03-30T05:07:59.536Z,16.40
2023-03-30T05:10:38.287Z,16.50
2023-03-30T05:13:28.927Z,16.60
2023-03-30T05:16:22.236Z,16.70
2023-03-30T05:19:15.546Z,16.80
2023-03-30T05:21:59.230Z,16.90
2023-03-30T05:24:26.600Z,17.00
2023-03-30T05:26:53.431Z,17.10
2023-03-30T05:29:32.897Z,17.10
2023-03-30T05:32:22.809Z,17.20
2023-03-30T05:35:08.967Z,17.30
2023-03-30T05:37:44.381Z,17.30
2023-03-30T05:40:41.054Z,17.40
2023-03-30T05:43:16.488Z,17.40
2023-03-30T05:45:52.135Z,17.40
2023-03-30T05:48:40.358Z,17.40
2023-03-30T05:51:30.038Z,17.40
2023-03-30T05:54:15.313Z,17.50
2023-03-30T05:56:52.218Z,17.50
2023-03-30T05:59:36.080Z,17.50
2023-03-30T06:02:02.895Z,17.50
2023-03-30T06:04:29.625Z,17.50
2023-03-30T06:06:56.522Z,17.50
2023-03-30T06:09:24.043Z,17.50
2023-03-30T06:11:51.795Z,17.50
2023-03-30T06:14:22.735Z,17.50
2023-03-30T06:17:12.149Z,17.50
2023-03-30T06:19:39.570Z,17.50
2023-03-30T06:22:06.896Z,17.40
2023-03-30T06:24:45.766Z,17.40
2023-03-30T06:27:13.605Z,17.40
2023-03-30T06:29:42.228Z,17.40
2023-03-30T06:32:09.107Z,17.40
2023-03-30T06:34:55.726Z,17.40
2023-03-30T06:37:25.212Z,17.30
2023-03-30T06:39:52.484Z,17.30
2023-03-30T06:42:19.495Z,17.30
2023-03-30T06:45:13.453Z,17.30
2023-03-30T06:47:41.571Z,17.30
2023-03-30T06:50:09.106Z,17.30
2023-03-30T06:52:58.399Z,17.20
2023-03-30T06:55:28.240Z,17.20
2023-03-30T06:57:55.613Z,17.20
2023-03-30T07:00:22.690Z,17.20
2023-03-30T07:03:08.686Z,17.20
2023-03-30T07:05:43.218Z,17.20
2023-03-30T07:08:18.809Z,17.10
2023-03-30T07:10:51.424Z,17.10
2023-03-30T07:13:19.145Z,17.10
2023-03-30T07:15:48.010Z,17.10
2023-03-30T07:18:15.048Z,17.10
2023-03-30T07:20:44.526Z,17.10
2023-03-30T07:23:14.950Z,17.10
2023-03-30T07:25:42.043Z,17.10
2023-03-30T07:28:16.287Z,17.00
2023-03-30T07:30:45.029Z,17.00
2023-03-30T07:33:12.433Z,17.00
2023-03-30T07:35:46.758Z,17.00
2023-03-30T07:38:17.485Z,17.00
2023-03-30T07:40:50.616Z,17.00
2023-03-30T07:43:21.745Z,17.00
2023-03-30T07:45:48.593Z,17.00
2023-03-30T07:48:22.712Z,16.90
2023-03-30T07:50:50.702Z,16.90
2023-03-30T07:53:17.877Z,16.90
2023-03-30T07:55:47.490Z,16.90
2023-03-30T07:58:24.075Z,16.90
2023-03-30T08:00:51.104Z,16.90
2023-03-30T08:03:50.650Z,16.90
2023-03-30T08:06:17.594Z,16.90
2023-03-30T08:08:47.693Z,16.90
2023-03-30T08:11:16.156Z,16.90
2023-03-30T08:13:44.330Z,16.90
2023-03-30T08:16:12.033Z,16.90
2023-03-30T08:18:41.373Z,16.90
2023-03-30T08:21:08.178Z,16.90
2023-03-30T08:23:34.988Z,16.90
2023-03-30T08:26:01.790Z,16.90
2023-03-30T08:28:28.622Z,16.90
2023-03-30T08:30:56.276Z,16.90
2023-03-30T08:33:24.822Z,16.80
2023-03-30T08:35:52.354Z,16.80
2023-03-30T08:38:19.330Z,16.80
2023-03-30T08:40:48.405Z,16.80
2023-03-30T08:43:21.301Z,16.80
2023-03-30T08:45:48.579Z,16.80
2023-03-30T08:48:24.852Z,16.80
2023-03-30T08:50:59.744Z,16.80
2023-03-30T08:53:29.534Z,16.80
2023-03-30T08:56:07.696Z,16.80
2023-03-30T08:58:45.787Z,16.80
2023-03-30T09:01:25.332Z,16.80
2023-03-30T09:04:17.070Z,16.80
2023-03-30T09:07:10.472Z,16.80
2023-03-30T09:09:49.155Z,16.80
2023-03-30T09:12:37.727Z,16.70
2023-03-30T09:15:15.546Z,16.70
2023-03-30T09:18:19.816Z,16.70
2023-03-30T09:20:50.683Z,16.70
2023-03-30T09:23:18.309Z,16.70
2023-03-30T09:25:51.002Z,16.70
2023-03-30T09:28:24.205Z,16.70
2023-03-30T09:31:01.366Z,16.70
2023-03-30T09:33:57.056Z,16.70
2023-03-30T09:36:43.963Z,16.70
2023-03-30T09:39:18.714Z,16.70
2023-03-30T09:42:07.553Z,16.70
2023-03-30T09:44:44.339Z,16.70
2023-03-30T09:47:26.799Z,16.70
2023-03-30T09:50:02.395Z,16.70
2023-03-30T09:52:32.407Z,16.70
2023-03-30T09:55:22.432Z,16.70
2023-03-30T09:57:53.534Z,16.70
2023-03-30T10:00:28.061Z,16.70
2023-03-30T10:02:59.867Z,16.70
2023-03-30T10:05:27.564Z,16.70
2023-03-30T10:07:57.206Z,16.70
2023-03-30T10:10:26.660Z,16.60
2023-03-30T10:13:22.177Z,16.60
2023-03-30T10:15:53.146Z,16.60
2023-03-30T10:18:27.651Z,16.60
2023-03-30T10:21:08.177Z,16.60
2023-03-30T10:23:40.085Z,16.60
2023-03-30T10:26:21.647Z,16.60
2023-03-30T10:28:57.125Z,16.60
2023-03-30T10:31:28.166Z,16.60
2023-03-30T10:33:57.969Z,16.60
2023-03-30T10:36:37.208Z,16.60
2023-03-30T10:39:30.164Z,16.60
2023-03-30T10:42:01.513Z,16.60
2023-03-30T10:44:47.638Z,16.60
2023-03-30T10:47:37.804Z,16.60
2023-03-30T10:50:35.681Z,16.60
2023-03-30T10:53:14.573Z,16.60
2023-03-30T10:56:17.175Z,16.60
2023-03-30T10:59:17.775Z,16.60
2023-03-30T11:01:53.552Z,16.60
2023-03-30T11:04:43.521Z,16.60
2023-03-30T11:07:30.996Z,16.70
2023-03-30T11:10:16.303Z,16.70
2023-03-30T11:12:52.485Z,16.70
2023-03-30T11:15:31.342Z,16.70
2023-03-30T11:18:07.206Z,16.70
2023-03-30T11:20:52.640Z,16.70
2023-03-30T11:23:47.704Z,16.70
2023-03-30T11:26:22.704Z,16.70
2023-03-30T11:28:54.735Z,16.70
2023-03-30T11:31:30.487Z,16.70
2023-03-30T11:34:14.569Z,16.70
2023-03-30T11:37:15.377Z,16.70
2023-03-30T11:39:51.862Z,16.70
2023-03-30T11:42:27.002Z,16.70
2023-03-30T11:44:55.733Z,16.70
2023-03-30T11:47:45.056Z,16.70
2023-03-30T11:50:25.541Z,16.70
2023-03-30T11:52:57.946Z,16.80
2023-03-30T11:55:49.498Z,16.80
2023-03-30T11:58:35.903Z,16.70
2023-03-30T12:01:28.774Z,16.70
2023-03-30T12:04:14.652Z,16.70
2023-03-30T12:06:55.636Z,16.70
2023-03-30T12:09:35.852Z,16.70
2023-03-30T12:12:17.983Z,16.80
2023-03-30T12:15:14.088Z,16.80
2023-03-30T12:17:54.721Z,16.80
2023-03-30T12:20:43.273Z,16.80
2023-03-30T12:23:26.297Z,16.80
2023-03-30T12:26:22.499Z,16.80
2023-03-30T12:29:36.119Z,16.80
2023-03-30T12:31:59.026Z,16.80
2023-03-30T12:34:33.497Z,16.80
2023-03-30T12:37:36.135Z,16.80
2023-03-30T12:40:08.750Z,16.80
2023-03-30T12:42:46.351Z,16.80
2023-03-30T12:45:21.375Z,16.80
2023-03-30T12:48:04.171Z,16.80
2023-03-30T12:50:45.390Z,16.80
2023-03-30T12:53:32.364Z,16.80
2023-03-30T12:56:17.660Z,16.80
2023-03-30T12:59:16.997Z,16.80
2023-03-30T13:02:07.951Z,16.80
2023-03-30T13:04:39.331Z,16.80
2023-03-30T13:07:22.196Z,16.80
2023-03-30T13:09:59.246Z,16.80
2023-03-30T13:12:32.195Z,16.80
2023-03-30T13:15:16.937Z,16.80
2023-03-30T13:18:09.046Z,16.80
2023-03-30T13:20:57.184Z,16.80
2023-03-30T13:23:31.908Z,16.80
2023-03-30T13:26:34.319Z,16.80
2023-03-30T13:29:15.734Z,16.80
2023-03-30T13:31:45.671Z,16.80
2023-03-30T13:34:23.736Z,16.80
2023-03-30T13:37:34.561Z,16.80
2023-03-30T13:40:38.665Z,16.80
2023-03-30T13:43:23.312Z,16.80
2023-03-30T13:46:13.181Z,16.80
2023-03-30T13:48:45.838Z,16.80
2023-03-30T13:51:16.784Z,16.80
2023-03-30T13:53:54.062Z,16.90
2023-03-30T13:56:21.884Z,16.90
2023-03-30T13:59:02.820Z,16.90
2023-03-30T14:01:29.893Z,16.90
2023-03-30T14:03:58.671Z,16.90
2023-03-30T14:06:30.800Z,16.90
2023-03-30T14:09:06.491Z,16.90
2023-03-30T14:11:45.757Z,16.90
2023-03-30T14:14:56.915Z,16.90
2023-03-30T14:17:24.891Z,16.90
2023-03-30T14:20:13.847Z,16.90
2023-03-30T14:22:43.400Z,16.90
2023-03-30T14:25:28.305Z,16.90
2023-03-30T14:28:03.400Z,16.90
2023-03-30T14:30:30.795Z,16.90
2023-03-30T14:33:12.358Z,16.90
2023-03-30T14:35:45.064Z,16.90
2023-03-30T14:38:22.626Z,16.90
2023-03-30T14:40:51.256Z,16.90
2023-03-30T14:43:53.560Z,16.90
2023-03-30T14:46:21.370Z,16.90
2023-03-30T14:48:50.618Z,16.90
2023-03-30T14:51:26.819Z,16.90
2023-03-30T14:53:54.974Z,16.90
2023-03-30T14:56:22.931Z,16.90
2023-03-30T14:58:51.966Z,16.90
2023-03-30T15:01:32.378Z,16.90
2023-03-30T15:04:04.341Z,17.00
2023-03-30T15:06:31.716Z,16.90
2023-03-30T15:09:04.110Z,16.90
2023-03-30T15:11:33.810Z,16.90
2023-03-30T15:14:08.736Z,16.90
2023-03-30T15:16:36.934Z,17.00
2023-03-30T15:19:13.768Z,17.00
2023-03-30T15:21:40.969Z,17.00
2023-03-30T15:24:10.233Z,17.00
2023-03-30T15:26:44.058Z,17.00
2023-03-30T15:29:11.243Z,17.00
2023-03-30T15:31:38.120Z,17.00
2023-03-30T15:34:14.074Z,17.00
2023-03-30T15:36:41.563Z,17.00
2023-03-30T15:39:19.866Z,17.00
2023-03-30T15:41:49.030Z,17.00
2023-03-30T15:44:22.368Z,17.00
2023-03-30T15:46:51.236Z,17.00
2023-03-30T15:49:20.752Z,17.00
2023-03-30T15:51:51.912Z,17.00
2023-03-30T15:54:33.820Z,17.00
2023-03-30T15:57:30.066Z,17.10
2023-03-30T16:00:03.166Z,17.10
2023-03-30T16:02:47.101Z,17.10
2023-03-30T16:05:19.902Z,17.10
2023-03-30T16:07:46.932Z,17.10
2023-03-30T16:10:15.280Z,17.10
2023-03-30T16:12:46.231Z,17.10
2023-03-30T16:15:18.395Z,17.20
2023-03-30T16:17:45.694Z,17.20
2023-03-30T16:20:23.662Z,17.20
2023-03-30T16:22:51.276Z,17.20
2023-03-30T16:25:21.347Z,17.20
2023-03-30T16:27:50.175Z,17.20
2023-03-30T16:30:35.398Z,17.20
2023-03-30T16:33:03.193Z,17.30
2023-03-30T16:35:30.476Z,17.30
2023-03-30T16:37:57.395Z,17.30
2023-03-30T16:40:42.825Z,17.30
2023-03-30T16:43:10.261Z,17.30
2023-03-30T16:45:37.062Z,17.30
2023-03-30T16:48:04.160Z,17.30
2023-03-30T16:50:38.421Z,17.30
2023-03-30T16:53:06.948Z,17.30
2023-03-30T16:55:33.726Z,17.40
2023-03-30T16:58:00.700Z,17.40
2023-03-30T17:00:30.903Z,17.40
2023-03-30T17:02:57.994Z,17.40
2023-03-30T17:05:24.896Z,17.40
2023-03-30T17:07:54.542Z,17.40
2023-03-30T17:10:28.298Z,17.40
2023-03-30T17:12:55.900Z,17.40
2023-03-30T17:15:24.349Z,17.40
2023-03-30T17:17:52.141Z,17.40
2023-03-30T17:20:37.104Z,17.40
2023-03-30T17:23:04.760Z,17.40
2023-03-30T17:25:32.304Z,17.40
2023-03-30T17:27:59.215Z,17.40
2023-03-30T17:30:33.336Z,17.40
2023-03-30T17:33:00.586Z,17.40
2023-03-30T17:35:27.615Z,17.40
2023-03-30T17:37:57.871Z,17.40
2023-03-30T17:40:27.822Z,17.40
2023-03-30T17:42:54.821Z,17.40
2023-03-30T17:45:25.213Z,17.40
2023-03-30T17:47:53.156Z,17.40
2023-03-30T17:50:30.579Z,17.40
2023-03-30T17:52:57.995Z,17.40
2023-03-30T17:55:30.557Z,17.40
2023-03-30T17:57:58.269Z,17.40
2023-03-30T18:00:33.548Z,17.40
2023-03-30T18:03:01.269Z,17.40
2023-03-30T18:05:31.012Z,17.40
2023-03-30T18:07:58.625Z,17.40
2023-03-30T18:10:28.225Z,17.40
2023-03-30T18:12:55.184Z,17.40
2023-03-30T18:15:33.736Z,17.40
2023-03-30T18:18:01.017Z,17.40
2023-03-30T18:20:40.214Z,17.40
2023-03-30T18:23:07.208Z,17.30
2023-03-30T18:25:33.908Z,17.30
2023-03-30T18:28:01.194Z,17.30
2023-03-30T18:30:29.423Z,17.30
2023-03-30T18:32:56.942Z,17.30
2023-03-30T18:35:26.595Z,17.30
2023-03-30T18:37:54.460Z,17.30
2023-03-30T18:40:22.964Z,17.30
2023-03-30T18:42:50.156Z,17.30
2023-03-30T18:45:31.839Z,17.30
2023-03-30T18:47:59.353Z,17.30
2023-03-30T18:50:41.498Z,17.30
2023-03-30T18:53:13.272Z,17.30
2023-03-30T18:55:43.057Z,17.30
2023-03-30T18:58:14.734Z,17.30
2023-03-30T19:00:41.902Z,17.30
2023-03-30T19:03:11.648Z,17.30
2023-03-30T19:05:39.662Z,17.30
2023-03-30T19:08:07.127Z,17.30
2023-03-30T19:10:38.739Z,17.30
2023-03-30T19:13:05.928Z,17.30
2023-03-30T19:15:35.432Z,17.20
2023-03-30T19:18:03.693Z,17.20
2023-03-30T19:20:32.181Z,17.20
2023-03-30T19:22:59.199Z,17.20
2023-03-30T19:25:28.053Z,17.20
2023-03-30T19:28:03.323Z,17.20
2023-03-30T19:30:34.202Z,17.20
2023-03-30T19:33:04.705Z,17.20
2023-03-30T19:35:32.458Z,17.20
2023-03-30T19:37:59.758Z,17.20
2023-03-30T19:40:26.516Z,17.20
2023-03-30T19:42:53.272Z,17.20
2023-03-30T19:45:22.787Z,17.20
2023-03-30T19:47:50.377Z,17.20
2023-03-30T19:50:19.418Z,17.20
2023-03-30T19:52:48.795Z,17.20
2023-03-30T19:55:16.792Z,17.10
2023-03-30T19:57:44.084Z,17.20
2023-03-30T20:00:18.312Z,17.20
2023-03-30T20:02:51.028Z,17.10
2023-03-30T20:05:20.851Z,17.10
2023-03-30T20:07:48.340Z,17.10
2023-03-30T20:10:18.991Z,17.10
2023-03-30T20:12:46.899Z,17.10
2023-03-30T20:15:14.767Z,17.20
2023-03-30T20:17:42.349Z,17.10
2023-03-30T20:20:12.571Z,17.20
2023-03-30T20:22:42.023Z,17.10
2023-03-30T20:25:11.520Z,17.10
2023-03-30T20:27:38.492Z,17.10
2023-03-30T20:30:06.728Z,17.10
2023-03-30T20:32:34.360Z,17.10
2023-03-30T20:35:01.321Z,17.20
2023-03-30T20:37:28.179Z,17.10
2023-03-30T20:40:03.641Z,17.20
2023-03-30T20:42:31.696Z,17.10
2023-03-30T20:44:59.285Z,17.10
2023-03-30T20:47:30.062Z,17.10
2023-03-30T20:49:58.155Z,17.20
2023-03-30T20:52:25.482Z,17.10
2023-03-30T20:54:52.725Z,17.10
2023-03-30T20:57:20.817Z,17.20
2023-03-30T20:59:48.077Z,17.20
2023-03-30T21:02:15.735Z,17.20
2023-03-30T21:04:43.553Z,17.20
2023-03-30T21:07:11.290Z,17.20
2023-03-30T21:09:38.609Z,17.20
2023-03-30T21:12:05.803Z,17.10
2023-03-30T21:14:32.593Z,17.10
2023-03-30T21:16:59.409Z,17.10
2023-03-30T21:19:26.264Z,17.10
2023-03-30T21:21:53.395Z,17.10
2023-03-30T21:24:20.466Z,17.10
2023-03-30T21:26:47.168Z,17.10
2023-03-30T21:29:13.864Z,17.10
2023-03-30T21:31:40.575Z,17.10
2023-03-30T21:34:09.053Z,17.10
2023-03-30T21:36:35.954Z,17.10
2023-03-30T21:39:02.737Z,17.10
2023-03-30T21:41:30.227Z,17.10
2023-03-30T21:43:57.016Z,17.10
2023-03-30T21:46:25.890Z,17.10
2023-03-30T21:48:54.226Z,17.10
2023-03-30T21:51:25.785Z,17.10
2023-03-30T21:53:53.603Z,17.00
2023-03-30T21:56:22.354Z,17.00
2023-03-30T21:58:49.645Z,17.00
2023-03-30T22:01:16.518Z,17.10
2023-03-30T22:03:44.651Z,17.00
2023-03-30T22:06:13.528Z,17.00
2023-03-30T22:08:41.118Z,17.00
2023-03-30T22:11:19.989Z,17.00
2023-03-30T22:13:48.641Z,17.00
2023-03-30T22:16:22.519Z,17.00
2023-03-30T22:18:50.093Z,17.00
2023-03-30T22:21:25.340Z,17.00
2023-03-30T22:23:55.277Z,17.00
2023-03-30T22:26:22.545Z,17.00
2023-03-30T22:28:49.238Z,16.90
2023-03-30T22:31:16.660Z,17.00
2023-03-30T22:33:44.212Z,16.90
2023-03-30T22:36:16.626Z,16.90
2023-03-30T22:38:43.339Z,16.90
2023-03-30T22:41:10.328Z,16.90
2023-03-30T22:43:37.222Z,16.90
2023-03-30T22:46:05.813Z,16.90
2023-03-30T22:48:33.262Z,16.90
2023-03-30T22:51:04.696Z,16.90
2023-03-30T22:53:32.391Z,16.90
2023-03-30T22:55:59.176Z,16.90
2023-03-30T22:58:25.963Z,16.90
2023-03-30T23:00:53.022Z,16.90
2023-03-30T23:03:19.997Z,16.80
2023-03-30T23:05:52.881Z,16.90
2023-03-30T23:08:19.949Z,16.80
2023-03-30T23:10:46.638Z,16.80
2023-03-30T23:13:14.153Z,16.80
2023-03-30T23:15:42.608Z,16.80
2023-03-30T23:18:09.324Z,16.80
2023-03-30T23:20:36.491Z,16.80
2023-03-30T23:23:03.316Z,16.80
2023-03-30T23:25:30.007Z,16.80
2023-03-30T23:27:58.023Z,16.80
2023-03-30T23:30:24.829Z,16.80
2023-03-30T23:45:28.305Z,16.70
2023-03-30T23:47:55.046Z,16.70
2023-03-30T23:50:21.946Z,16.70
2023-03-30T23:52:48.658Z,16.70
2023-03-30T23:55:15.592Z,16.70
2023-03-30T23:57:42.273Z,16.70
